Time;durP1;ratioP1;P1;durP2;ratioP2;P2;SDS_P1;SDS_P2;PMS_P1;PMS_P2;Temp;Humidity;BMP_temperature;BMP_pressure;BME280_temperature;BME280_humidity;BME280_pressure;Samples;Min_cycle;Max_cycle;Signal;HPM_P1;HPM_P2
2021/09/13 00:02:18;;;;;;;9.73;5.68;;;;;;;10.28;90.53;90989.88;4980543;28;20052;-90
2021/09/13 00:04:44;;;;;;;9.27;5.80;;;;;;;10.29;90.20;90994.03;4983485;28;20025;-90
2021/09/13 00:07:09;;;;;;;8.80;5.35;;;;;;;10.19;89.53;90991.81;4981386;28;20022;-90
2021/09/13 00:09:35;;;;;;;11.77;5.97;;;;;;;10.14;90.08;90981.59;4981654;28;20030;-90
2021/09/13 00:12:00;;;;;;;8.30;5.82;;;;;;;10.10;90.46;90988.53;4981892;28;20021;-90
2021/09/13 00:14:26;;;;;;;8.32;5.95;;;;;;;10.25;90.65;90988.69;4981628;28;20018;-90
2021/09/13 00:16:51;;;;;;;9.73;5.60;;;;;;;10.26;90.63;90990.22;4997591;28;20044;-90
2021/09/13 00:19:16;;;;;;;8.13;5.68;;;;;;;10.22;90.72;90985.97;4995183;28;20393;-90
2021/09/13 00:21:42;;;;;;;10.80;5.63;;;;;;;10.23;90.83;90990.81;4978480;28;20029;-89
2021/09/13 00:24:07;;;;;;;7.95;5.45;;;;;;;10.19;90.76;90995.16;4978720;28;20041;-90
2021/09/13 00:26:33;;;;;;;8.60;5.75;;;;;;;10.14;91.15;90981.59;4982596;28;20025;-91
2021/09/13 00:28:58;;;;;;;8.60;5.70;;;;;;;10.13;91.24;90986.03;4981466;28;20079;-90
2021/09/13 00:31:24;;;;;;;9.90;5.55;;;;;;;10.09;91.31;90979.19;4981747;28;20393;-89
2021/09/13 00:33:49;;;;;;;11.38;5.95;;;;;;;10.04;91.65;90974.97;4981769;28;20032;-91
2021/09/13 00:36:14;;;;;;;8.18;5.72;;;;;;;9.98;91.32;90976.25;4994432;28;20033;-90
2021/09/13 00:38:40;;;;;;;7.70;5.50;;;;;;;9.93;91.31;90977.22;4981608;28;20021;-91
2021/09/13 00:41:05;;;;;;;7.57;5.50;;;;;;;10.20;91.07;90975.09;4984597;28;20021;-91
2021/09/13 00:43:31;;;;;;;11.65;6.40;;;;;;;10.12;91.09;90973.34;4985439;28;20025;-90
2021/09/13 00:45:57;;;;;;;8.07;5.50;;;;;;;10.07;90.52;90976.94;5011812;28;20037;-91
2021/09/13 00:48:23;;;;;;;9.18;6.25;;;;;;;9.97;90.43;90967.69;4985066;28;20592;-89
2021/09/13 00:50:49;;;;;;;8.77;6.07;;;;;;;9.95;90.97;90974.28;4985130;28;20028;-90
2021/09/13 00:53:14;;;;;;;9.05;6.15;;;;;;;9.88;91.02;90972.19;4985119;28;20029;-91
2021/09/13 00:55:40;;;;;;;9.85;5.82;;;;;;;9.81;90.58;90969.34;4984737;28;20029;-90
2021/09/13 00:58:07;;;;;;;7.45;5.60;;;;;;;9.89;90.15;90971.09;4984425;28;20033;-91
2021/09/13 01:00:34;;;;;;;9.90;6.05;;;;;;;9.83;90.37;90964.59;4985521;28;20025;-90
2021/09/13 01:02:59;;;;;;;8.95;6.13;;;;;;;9.89;91.08;90965.16;5001451;28;20746;-91
2021/09/13 01:05:25;;;;;;;7.95;6.05;;;;;;;9.86;91.52;90971.00;5000628;28;20037;-90
2021/09/13 01:07:50;;;;;;;10.60;6.25;;;;;;;9.84;91.50;90960.16;5000735;28;20029;-90
2021/09/13 01:10:15;;;;;;;9.75;6.35;;;;;;;9.83;91.57;90969.81;4984615;28;20563;-90
2021/09/13 01:12:41;;;;;;;10.57;6.38;;;;;;;9.81;91.36;90962.31;4992952;28;20025;-90
2021/09/13 01:15:06;;;;;;;11.77;6.30;;;;;;;9.86;91.30;90958.75;4981229;28;20433;-90
2021/09/13 01:17:32;;;;;;;10.23;6.60;;;;;;;9.88;91.69;90959.19;4973410;28;20108;-90
2021/09/13 01:19:57;;;;;;;9.32;6.40;;;;;;;9.81;91.72;90951.16;4984600;28;20485;-90
2021/09/13 01:22:23;;;;;;;10.82;6.72;;;;;;;9.84;92.40;90945.28;4984589;28;20025;-91
2021/09/13 01:24:48;;;;;;;8.38;5.72;;;;;;;9.73;90.70;90939.75;4984780;28;20072;-90
2021/09/13 01:27:14;;;;;;;7.55;5.65;;;;;;;9.72;90.07;90953.09;4984320;28;20032;-90
2021/09/13 01:29:39;;;;;;;10.32;6.10;;;;;;;9.78;90.28;90946.56;4984275;28;20125;-90
2021/09/13 01:32:05;;;;;;;8.05;5.72;;;;;;;9.74;90.21;90950.91;4984468;28;20075;-90
2021/09/13 01:34:31;;;;;;;8.65;6.07;;;;;;;9.67;90.87;90945.47;5000628;28;20496;-91
2021/09/13 01:36:56;;;;;;;8.10;5.65;;;;;;;9.71;90.88;90952.31;4994598;28;20017;-90
2021/09/13 01:39:22;;;;;;;8.90;5.57;;;;;;;9.77;90.68;90945.81;5008906;28;20539;-90
2021/09/13 01:41:47;;;;;;;8.30;6.10;;;;;;;9.88;91.14;90946.16;5009156;28;20020;-92
2021/09/13 01:44:13;;;;;;;11.48;6.63;;;;;;;9.84;91.57;90952.34;5025858;28;20104;-92
2021/09/13 01:46:39;;;;;;;14.48;7.03;;;;;;;9.74;91.76;90945.69;5025768;28;20014;-91
2021/09/13 01:49:08;;;;;;;8.02;5.50;;;;;;;9.64;89.84;90946.09;5007453;28;20034;-92
2021/09/13 01:51:34;;;;;;;8.07;5.00;;;;;;;9.54;88.26;90945.44;5006090;28;20062;-89
2021/09/13 01:53:59;;;;;;;7.38;5.30;;;;;;;9.61;88.89;90938.94;5006075;28;20032;-92
2021/09/13 01:56:25;;;;;;;9.07;6.43;;;;;;;9.51;91.02;90943.47;5013791;28;20030;-90
2021/09/13 01:58:50;;;;;;;10.98;6.38;;;;;;;9.50;90.92;90951.56;5013186;28;20568;-90
2021/09/13 02:01:17;;;;;;;9.95;5.82;;;;;;;9.50;90.94;90946.38;5001114;28;20029;-90
2021/09/13 02:03:43;;;;;;;9.07;6.60;;;;;;;9.51;91.26;90943.47;4986417;28;20029;-90
2021/09/13 02:06:08;;;;;;;10.82;6.78;;;;;;;9.54;91.99;90950.63;4999550;28;20424;-90
2021/09/13 02:08:34;;;;;;;9.77;6.55;;;;;;;9.54;91.56;90948.03;4985031;23;20035;-88
2021/09/13 02:11:00;;;;;;;9.85;6.05;;;;;;;9.54;90.67;90942.06;4962713;28;20509;-86
2021/09/13 02:13:25;;;;;;;8.77;5.60;;;;;;;9.51;90.33;90948.69;4973028;28;20033;-88
2021/09/13 02:15:50;;;;;;;8.30;5.53;;;;;;;9.42;90.52;90934.22;4973011;28;20033;-89
2021/09/13 02:18:16;;;;;;;9.25;5.63;;;;;;;9.36;90.16;90931.03;4969940;28;20033;-89
2021/09/13 02:20:41;;;;;;;8.30;5.40;;;;;;;9.31;89.28;90936.44;4961527;28;20030;-88
2021/09/13 02:23:07;;;;;;;8.02;5.43;;;;;;;9.24;89.50;90925.81;4962907;28;20038;-88
2021/09/13 02:25:32;;;;;;;9.00;6.05;;;;;;;9.33;90.58;90929.84;4962404;28;20057;-88
2021/09/13 02:27:57;;;;;;;10.45;5.68;;;;;;;9.41;90.68;90938.66;4961833;28;20022;-88
2021/09/13 02:30:23;;;;;;;9.13;5.75;;;;;;;9.25;90.52;90935.13;4977328;28;20029;-88
2021/09/13 02:32:48;;;;;;;8.48;5.88;;;;;;;9.16;90.71;90937.03;4982032;28;20478;-88
2021/09/13 02:35:14;;;;;;;7.10;5.05;;;;;;;9.16;90.93;90937.03;4965760;28;20673;-88
2021/09/13 02:37:39;;;;;;;7.70;4.95;;;;;;;9.15;90.75;90932.91;4981257;28;20390;-88
2021/09/13 02:40:05;;;;;;;9.57;5.22;;;;;;;9.21;91.09;90939.44;4981825;28;20030;-89
2021/09/13 02:42:31;;;;;;;7.95;5.43;;;;;;;9.33;89.46;90937.66;4981806;28;20409;-88
2021/09/13 02:44:56;;;;;;;9.15;5.22;;;;;;;9.27;89.02;90938.94;4972681;28;20030;-89
2021/09/13 02:47:22;;;;;;;7.32;5.15;;;;;;;9.16;89.14;90944.84;4977478;28;20039;-88
2021/09/13 02:49:47;;;;;;;8.65;4.70;;;;;;;9.04;88.96;90941.09;4964672;28;20485;-89
2021/09/13 02:52:12;;;;;;;6.28;4.55;;;;;;;8.95;89.94;90937.81;4980745;28;20389;-88
2021/09/13 02:54:38;;;;;;;13.02;5.35;;;;;;;9.08;89.40;90947.19;4980839;28;20018;-88
2021/09/13 02:57:03;;;;;;;8.40;5.53;;;;;;;9.14;89.82;90936.59;4981027;28;20018;-87
2021/09/13 02:59:29;;;;;;;8.90;5.28;;;;;;;9.09;89.46;90935.72;4973160;28;20025;-88
2021/09/13 03:01:54;;;;;;;8.77;4.80;;;;;;;9.06;89.08;90944.13;4975657;28;20134;-89
2021/09/13 03:04:19;;;;;;;7.15;4.72;;;;;;;8.92;89.50;90933.22;4960456;28;20022;-88
2021/09/13 03:06:45;;;;;;;6.97;5.03;;;;;;;8.99;90.02;90938.69;4945229;28;20037;-87
2021/09/13 03:09:10;;;;;;;6.93;4.63;;;;;;;9.00;89.22;90929.03;4961846;28;20552;-88
2021/09/13 03:11:36;;;;;;;7.00;5.03;;;;;;;8.96;88.74;90930.75;4945392;28;20026;-88
2021/09/13 03:14:01;;;;;;;8.57;4.80;;;;;;;8.91;88.64;90930.97;4961487;28;20026;-89
2021/09/13 03:16:26;;;;;;;8.75;4.57;;;;;;;8.95;89.05;90931.84;4971649;28;20026;-94
2021/09/13 03:18:52;;;;;;;6.95;4.60;;;;;;;8.86;90.29;90931.88;4985735;28;20041;-92
2021/09/13 03:21:18;;;;;;;6.40;4.50;;;;;;;8.73;89.82;90919.91;4976637;28;20049;-88
2021/09/13 03:23:43;;;;;;;6.10;4.70;;;;;;;8.79;90.62;90934.22;4967420;28;20096;-88
2021/09/13 03:26:08;;;;;;;7.07;5.13;;;;;;;8.75;90.58;90928.91;4961439;28;20026;-88
2021/09/13 03:28:34;;;;;;;6.57;4.70;;;;;;;8.70;90.95;90923.16;4977003;28;20027;-88
2021/09/13 03:31:01;;;;;;;6.45;4.63;;;;;;;8.70;90.52;90923.16;4961015;28;20100;-89
2021/09/13 03:33:27;;;;;;;7.50;4.63;;;;;;;8.73;90.15;90932.91;4945123;28;20513;-88
2021/09/13 03:35:52;;;;;;;6.78;4.90;;;;;;;8.73;89.71;90925.88;4945030;28;20034;-89
2021/09/13 03:38:17;;;;;;;8.10;4.55;;;;;;;8.75;90.83;90928.16;4944559;28;20025;-88
2021/09/13 03:40:43;;;;;;;10.45;5.25;;;;;;;8.70;91.00;90920.56;4944124;28;20631;-88
2021/09/13 03:43:08;;;;;;;9.10;5.18;;;;;;;8.73;91.79;90925.88;4944456;28;20018;-88
2021/09/13 03:45:34;;;;;;;7.97;4.53;;;;;;;8.74;91.39;90914.41;4976077;28;20038;-89
2021/09/13 03:47:59;;;;;;;7.57;5.30;;;;;;;8.85;92.15;90925.19;4943643;28;20026;-88
2021/09/13 03:50:25;;;;;;;10.55;6.00;;;;;;;8.82;92.63;90928.41;4970145;28;20022;-88
2021/09/13 03:52:50;;;;;;;7.28;5.38;;;;;;;8.79;92.71;90924.59;4959944;28;20033;-88
2021/09/13 03:55:16;;;;;;;9.18;6.10;;;;;;;8.81;92.78;90929.50;4976077;28;20033;-88
2021/09/13 03:57:41;;;;;;;10.27;5.68;;;;;;;8.76;92.30;90914.06;4959717;28;20030;-89
2021/09/13 04:00:07;;;;;;;12.88;6.93;;;;;;;8.79;92.70;90918.63;4959954;28;20030;-88
2021/09/13 04:02:32;;;;;;;9.85;5.70;;;;;;;8.83;92.42;90922.13;4943763;28;20032;-88
2021/09/13 04:04:58;;;;;;;12.77;5.50;;;;;;;8.80;92.05;90920.19;4959752;28;20030;-87
2021/09/13 04:07:33;;;;;;;8.05;5.45;;;;;;;8.77;91.24;90913.78;4975445;28;20418;-88
2021/09/13 04:10:14;;;;;;;8.13;5.43;;;;;;;8.77;91.19;90916.38;4961090;28;20022;-88
2021/09/13 04:12:40;;;;;;;6.95;4.90;;;;;;;8.73;90.24;90917.31;4964390;28;20028;-88
2021/09/13 04:15:06;;;;;;;6.05;4.35;;;;;;;8.76;89.80;90919.25;4977697;28;20394;-89
2021/09/13 04:17:31;;;;;;;9.50;7.13;;;;;;;8.78;90.09;90911.94;4987861;28;20025;-92
2021/09/13 04:19:57;;;;;;;11.35;9.68;;;;;;;8.63;91.29;90913.25;5010088;28;20030;-89
2021/09/13 04:22:22;;;;;;;8.55;6.80;;;;;;;8.81;90.25;90911.31;4999490;28;20034;-88
2021/09/13 04:24:48;;;;;;;9.65;5.70;;;;;;;8.73;90.22;90905.09;4983092;28;20032;-88
2021/09/13 04:27:13;;;;;;;8.85;6.05;;;;;;;8.69;91.62;90903.41;4999152;28;20022;-88
2021/09/13 04:29:39;;;;;;;8.18;5.50;;;;;;;8.65;91.18;90899.94;4972969;28;20030;-88
2021/09/13 04:32:04;;;;;;;10.65;6.93;;;;;;;8.67;91.76;90910.78;4928480;28;20368;-87
2021/09/13 04:34:30;;;;;;;9.85;5.97;;;;;;;8.69;91.43;90917.16;4944349;28;20045;-88
2021/09/13 04:36:55;;;;;;;8.05;5.10;;;;;;;8.69;90.10;90913.81;4928234;28;20023;-88
2021/09/13 04:39:20;;;;;;;8.50;5.40;;;;;;;8.68;90.64;90912.28;4928299;28;20396;-88
2021/09/13 04:41:46;;;;;;;8.80;5.82;;;;;;;8.60;91.48;90901.66;4960147;28;20669;-88
2021/09/13 04:44:11;;;;;;;8.63;5.82;;;;;;;8.66;90.83;90911.84;4944913;28;20034;-89
2021/09/13 04:46:37;;;;;;;7.88;5.70;;;;;;;8.58;89.97;90903.78;4998575;28;20022;-91
2021/09/13 04:49:02;;;;;;;6.63;4.53;;;;;;;8.64;89.03;90911.41;4998458;28;20505;-89
2021/09/13 04:51:28;;;;;;;7.53;5.00;;;;;;;8.57;88.53;90906.72;4982320;28;20030;-88
2021/09/13 04:53:53;;;;;;;5.68;4.50;;;;;;;8.55;88.92;90908.84;4966040;28;20030;-89
2021/09/13 04:56:19;;;;;;;8.15;5.68;;;;;;;8.36;90.13;90917.03;4982348;28;20437;-89
2021/09/13 04:58:44;;;;;;;11.10;5.57;;;;;;;8.28;90.86;90917.84;4973157;28;20014;-93
2021/09/13 05:01:09;;;;;;;8.88;6.30;;;;;;;8.31;91.08;90917.97;4989130;28;20034;-88
2021/09/13 05:03:35;;;;;;;9.05;5.95;;;;;;;8.32;90.97;90910.94;4944155;28;20031;-88
2021/09/13 05:06:02;;;;;;;10.57;6.03;;;;;;;8.52;90.30;90914.69;4943923;28;20026;-88
2021/09/13 05:08:27;;;;;;;8.75;6.40;;;;;;;8.46;91.62;90908.16;4943649;28;20054;-89
2021/09/13 05:10:53;;;;;;;10.35;6.70;;;;;;;8.47;92.83;90894.09;4938823;28;20096;-88
2021/09/13 05:13:18;;;;;;;11.52;7.05;;;;;;;8.57;92.81;90897.06;4943477;28;20448;-88
2021/09/13 05:15:43;;;;;;;9.32;6.00;;;;;;;8.54;91.11;90892.50;4943306;28;20027;-88
2021/09/13 05:18:09;;;;;;;12.45;6.80;;;;;;;8.67;92.51;90901.16;4943573;28;20443;-88
2021/09/13 05:20:34;;;;;;;12.00;7.50;;;;;;;8.68;93.23;90907.84;4937149;28;20023;-87
2021/09/13 05:23:00;;;;;;;11.07;6.97;;;;;;;8.65;92.67;90902.53;4956882;28;20057;-88
2021/09/13 05:25:25;;;;;;;12.70;7.78;;;;;;;8.73;94.04;90906.94;4947490;28;20030;-88
2021/09/13 05:27:50;;;;;;;11.20;6.72;;;;;;;8.80;93.05;90915.75;4946211;28;20076;-88
2021/09/13 05:30:16;;;;;;;13.55;6.93;;;;;;;8.83;93.37;90914.31;4947349;28;20490;-89
2021/09/13 05:32:41;;;;;;;10.13;6.60;;;;;;;8.78;93.88;90909.31;4947717;28;20034;-88
2021/09/13 05:35:07;;;;;;;17.05;7.05;;;;;;;8.81;93.04;90906.84;4960851;28;20037;-88
2021/09/13 05:37:33;;;;;;;11.30;6.60;;;;;;;8.76;92.88;90911.47;4965650;28;20080;-89
2021/09/13 05:39:58;;;;;;;10.15;6.15;;;;;;;8.87;91.10;90910.03;4961761;28;20026;-88
2021/09/13 05:42:24;;;;;;;15.00;6.88;;;;;;;8.71;91.23;90912.44;4945784;28;20073;-89
2021/09/13 05:44:49;;;;;;;9.13;6.25;;;;;;;8.80;92.20;90909.78;4961769;28;20018;-88
2021/09/13 05:47:15;;;;;;;10.23;6.75;;;;;;;8.78;92.02;90919.72;4945793;28;20471;-88
2021/09/13 05:49:40;;;;;;;11.27;6.93;;;;;;;8.83;92.18;90909.91;4945501;28;20077;-88
2021/09/13 05:52:06;;;;;;;14.40;6.78;;;;;;;8.93;91.95;90911.34;4961455;28;20030;-87
2021/09/13 05:54:31;;;;;;;16.73;6.70;;;;;;;8.90;91.12;90909.38;4961821;28;20206;-89
2021/09/13 05:56:56;;;;;;;11.15;6.18;;;;;;;9.09;90.21;90927.91;4977243;28;20026;-89
2021/09/13 05:59:23;;;;;;;10.23;5.95;;;;;;;8.99;90.07;90915.28;4961334;28;20526;-89
2021/09/13 06:01:48;;;;;;;9.93;6.38;;;;;;;8.92;90.31;90922.84;4961678;28;20070;-87
2021/09/13 06:04:14;;;;;;;10.23;6.07;;;;;;;8.94;91.04;90920.69;4942254;28;20026;-88
2021/09/13 06:06:40;;;;;;;15.07;7.15;;;;;;;8.96;91.74;90923.72;4926071;28;20151;-88
2021/09/13 06:09:05;;;;;;;11.45;6.47;;;;;;;9.01;92.21;90926.16;4958980;28;20025;-88
2021/09/13 06:11:31;;;;;;;12.55;7.63;;;;;;;9.15;92.81;90922.50;4942392;28;20034;-88
2021/09/13 06:13:56;;;;;;;9.93;6.82;;;;;;;9.21;93.56;90929.78;4942432;28;20038;-88
2021/09/13 06:16:22;;;;;;;9.48;6.32;;;;;;;9.36;94.23;90925.84;4941677;28;20030;-88
2021/09/13 06:18:47;;;;;;;10.13;6.32;;;;;;;9.46;94.31;90930.66;4941638;28;20058;-88
2021/09/13 06:21:13;;;;;;;8.82;6.07;;;;;;;9.47;94.06;90926.19;4941725;28;20034;-88
2021/09/13 06:23:38;;;;;;;11.20;7.20;;;;;;;9.55;94.11;90933.94;4941918;28;20070;-87
2021/09/13 06:26:04;;;;;;;10.52;6.63;;;;;;;9.70;93.99;90939.63;4941837;28;20086;-87
2021/09/13 06:28:29;;;;;;;13.18;8.02;;;;;;;9.88;94.25;90938.38;4949356;28;20073;-88
2021/09/13 06:30:55;;;;;;;13.98;8.55;;;;;;;9.97;94.65;90939.03;4961220;28;20401;-89
2021/09/13 06:33:20;;;;;;;11.75;8.18;;;;;;;10.02;94.57;90936.22;4977175;28;20030;-88
2021/09/13 06:35:45;;;;;;;14.88;8.57;;;;;;;10.11;94.48;90937.97;4960785;28;20482;-89
2021/09/13 06:38:11;;;;;;;14.00;8.23;;;;;;;10.30;94.24;90940.84;4976309;28;20030;-89
2021/09/13 06:40:36;;;;;;;13.82;8.57;;;;;;;10.31;94.74;90939.75;4960581;28;20461;-89
2021/09/13 06:43:02;;;;;;;13.63;8.48;;;;;;;10.37;94.37;90941.06;4960827;28;20033;-89
2021/09/13 06:45:27;;;;;;;12.55;8.52;;;;;;;10.48;94.66;90941.38;4969674;28;20030;-88
2021/09/13 06:47:53;;;;;;;13.20;8.68;;;;;;;10.50;94.70;90934.78;4957105;28;20031;-88
2021/09/13 06:50:25;;;;;;;15.25;9.50;;;;;;;10.64;94.92;90941.50;4925890;28;20137;-89
2021/09/13 06:52:51;;;;;;;14.65;9.60;;;;;;;10.70;94.96;90934.97;4941993;28;20027;-88
2021/09/13 06:55:16;;;;;;;14.55;8.88;;;;;;;10.80;94.70;90938.97;4942696;28;20023;-89
2021/09/13 06:57:42;;;;;;;16.85;9.32;;;;;;;10.88;94.84;90941.44;4965321;28;20073;-90
2021/09/13 07:00:12;;;;;;;17.58;10.52;;;;;;;10.98;95.00;90938.41;4962316;28;20043;-92
2021/09/13 07:02:38;;;;;;;17.27;10.10;;;;;;;11.09;95.44;90943.16;4992276;28;20391;-88
2021/09/13 07:05:05;;;;;;;16.55;10.60;;;;;;;11.28;95.46;90950.41;4977118;28;20026;-88
2021/09/13 07:07:31;;;;;;;17.52;10.68;;;;;;;11.37;95.07;90949.16;4976048;28;20023;-88
2021/09/13 07:09:56;;;;;;;15.57;10.32;;;;;;;11.54;95.46;90957.81;4977012;28;20028;-89
2021/09/13 07:12:29;;;;;;;15.98;10.30;;;;;;;11.59;94.97;90954.97;4955208;28;20034;-89
2021/09/13 07:14:54;;;;;;;17.45;11.05;;;;;;;11.67;94.83;90946.25;4960002;28;20041;-89
2021/09/13 07:17:20;;;;;;;20.17;10.38;;;;;;;11.81;94.27;90957.06;4942554;28;20019;-89
2021/09/13 07:19:46;;;;;;;15.73;10.65;;;;;;;11.98;95.14;90955.25;4940931;28;20082;-89
2021/09/13 07:22:11;;;;;;;17.05;10.07;;;;;;;12.09;94.75;90953.69;4925082;28;20023;-89
2021/09/13 07:24:40;;;;;;;14.07;9.30;;;;;;;12.17;93.85;90957.97;4924947;28;20030;-88
2021/09/13 07:27:11;;;;;;;17.27;10.10;;;;;;;12.28;93.96;90959.00;4941471;28;20025;-88
2021/09/13 07:29:37;;;;;;;14.75;10.02;;;;;;;12.38;93.83;90962.97;4941041;28;20031;-88
2021/09/13 07:32:03;;;;;;;14.68;9.80;;;;;;;12.60;94.34;90956.38;4942792;28;20027;-88
2021/09/13 07:34:29;;;;;;;17.15;10.70;;;;;;;12.82;94.72;90963.59;4955412;28;20025;-87
2021/09/13 07:36:55;;;;;;;15.93;10.32;;;;;;;13.05;93.36;90963.75;4974675;28;20026;-88
2021/09/13 07:39:24;;;;;;;18.05;10.73;;;;;;;13.18;93.86;90953.16;4951335;28;20023;-86
2021/09/13 07:41:50;;;;;;;17.92;11.65;;;;;;;13.38;92.05;90962.59;4941844;28;20637;-86
2021/09/13 07:44:15;;;;;;;17.48;10.90;;;;;;;13.59;91.36;90967.47;4941766;28;20060;-86
2021/09/13 07:46:41;;;;;;;20.60;11.68;;;;;;;13.73;90.69;90965.16;4941961;28;20061;-86
2021/09/13 07:49:07;;;;;;;17.58;11.30;;;;;;;13.93;90.75;90967.75;4966919;28;20034;-86
2021/09/13 07:51:32;;;;;;;16.10;11.18;;;;;;;14.05;90.59;90965.72;4940329;28;20034;-89
2021/09/13 07:53:58;;;;;;;15.63;10.23;;;;;;;14.17;90.52;90967.44;4950393;28;20376;-86
2021/09/13 07:56:23;;;;;;;16.33;9.98;;;;;;;14.27;90.31;90976.59;4940378;28;20042;-86
2021/09/13 07:58:48;;;;;;;15.40;10.15;;;;;;;14.49;89.46;90980.34;4943848;28;20761;-86
2021/09/13 08:01:14;;;;;;;13.50;9.00;;;;;;;14.57;88.91;90976.75;4943173;28;20023;-86
2021/09/13 08:03:39;;;;;;;15.07;8.90;;;;;;;14.88;87.19;90982.88;4959400;28;20029;-86
2021/09/13 08:06:06;;;;;;;14.73;8.40;;;;;;;15.13;86.35;90983.22;4990200;28;20038;-85
2021/09/13 08:08:32;;;;;;;12.88;8.73;;;;;;;15.39;84.71;90975.31;4981348;23;20051;-91
2021/09/13 08:10:57;;;;;;;11.50;8.23;;;;;;;15.46;85.58;90985.16;4923737;28;20022;-90
2021/09/13 08:13:23;;;;;;;11.20;7.85;;;;;;;15.49;85.32;90984.47;4956388;28;20395;-90
2021/09/13 08:15:48;;;;;;;14.70;8.77;;;;;;;15.60;84.21;90982.72;4939653;28;20446;-91
2021/09/13 08:18:14;;;;;;;10.93;7.68;;;;;;;15.75;84.05;90981.78;4921232;29;20022;-87
2021/09/13 08:20:39;;;;;;;12.20;8.13;;;;;;;15.82;83.57;90985.63;4920545;29;20160;-88
2021/09/13 08:23:05;;;;;;;13.73;8.35;;;;;;;15.96;82.79;90988.41;4921322;29;20038;-89
2021/09/13 08:25:30;;;;;;;12.60;7.93;;;;;;;16.03;83.19;90988.50;4905392;29;20027;-87
2021/09/13 08:27:55;;;;;;;10.68;7.88;;;;;;;16.13;82.75;90985.22;4905116;29;20419;-90
2021/09/13 08:30:21;;;;;;;10.55;7.25;;;;;;;16.22;81.90;90985.72;4921330;29;20023;-90
2021/09/13 08:32:46;;;;;;;10.88;7.40;;;;;;;16.35;79.19;90991.47;4921295;29;20159;-91
2021/09/13 08:35:12;;;;;;;14.25;7.95;;;;;;;16.42;79.62;90990.78;4905435;29;20019;-90
2021/09/13 08:37:37;;;;;;;9.60;7.47;;;;;;;16.61;79.51;90987.97;4904983;29;20015;-86
2021/09/13 08:40:03;;;;;;;11.27;7.15;;;;;;;16.75;76.80;90987.34;4905354;29;20027;-88
2021/09/13 08:42:29;;;;;;;10.40;7.28;;;;;;;16.61;77.28;90981.94;4905043;29;20321;-89
2021/09/13 08:44:56;;;;;;;11.48;7.53;;;;;;;16.75;79.83;90986.56;4936722;29;20028;-88
2021/09/13 08:47:31;;;;;;;11.55;7.78;;;;;;;16.86;77.08;90979.53;4905493;29;20159;-90
2021/09/13 08:50:04;;;;;;;10.15;7.40;;;;;;;17.04;77.46;90987.56;4923119;29;20078;-88
2021/09/13 08:52:30;;;;;;;10.75;7.30;;;;;;;17.20;76.16;90994.06;4923260;29;20031;-88
2021/09/13 08:54:55;;;;;;;13.52;7.93;;;;;;;17.38;75.23;90990.78;4905145;29;20402;-89
2021/09/13 08:57:22;;;;;;;11.48;7.15;;;;;;;17.59;73.18;90992.78;4904899;29;20015;-88
2021/09/13 08:59:47;;;;;;;9.48;6.82;;;;;;;17.44;73.56;90997.97;4921287;29;20030;-87
2021/09/13 09:02:13;;;;;;;9.25;6.50;;;;;;;17.56;71.09;90994.31;4922397;29;20027;-88
2021/09/13 09:04:42;;;;;;;10.85;6.03;;;;;;;17.46;69.25;90989.72;4908314;29;20555;-88
2021/09/13 09:07:09;;;;;;;8.73;6.20;;;;;;;17.39;69.46;90997.59;4908972;29;20420;-89
2021/09/13 09:09:34;;;;;;;8.52;6.10;;;;;;;17.29;71.00;91004.28;4924530;29;20082;-86
2021/09/13 09:12:06;;;;;;;9.18;5.90;;;;;;;17.48;70.57;90994.63;4908769;29;20027;-91
2021/09/13 09:14:33;;;;;;;7.32;6.00;;;;;;;17.47;70.26;90999.13;4940023;29;20547;-89
2021/09/13 09:17:00;;;;;;;9.68;5.75;;;;;;;17.62;70.65;91002.59;4940092;29;20055;-89
2021/09/13 09:19:26;;;;;;;6.70;5.18;;;;;;;17.84;68.85;91006.13;4924652;29;20043;-89
2021/09/13 09:21:52;;;;;;;10.73;5.60;;;;;;;17.73;67.29;91000.03;4909136;29;20035;-88
2021/09/13 09:24:17;;;;;;;8.45;5.93;;;;;;;17.83;70.84;90999.34;4908377;29;20031;-89
2021/09/13 09:27:00;;;;;;;9.00;5.63;;;;;;;18.00;68.29;90998.66;4908055;29;20376;-89
2021/09/13 09:29:27;;;;;;;8.52;5.22;;;;;;;18.00;67.70;90987.38;4923771;29;20034;-88
2021/09/13 09:31:52;;;;;;;6.80;5.05;;;;;;;17.97;64.25;90988.84;4924490;29;20031;-89
2021/09/13 09:34:19;;;;;;;7.45;4.65;;;;;;;17.98;63.04;90990.38;4908607;29;20551;-87
2021/09/13 09:37:00;;;;;;;8.77;5.00;;;;;;;17.98;63.44;90993.00;4923354;29;20078;-88
2021/09/13 09:39:40;;;;;;;7.13;5.07;;;;;;;18.13;64.55;90981.38;4957166;28;20035;-88
2021/09/13 09:42:07;;;;;;;7.72;4.60;;;;;;;18.41;63.63;90993.16;4925209;29;20031;-89
2021/09/13 09:44:35;;;;;;;7.68;4.80;;;;;;;18.26;61.77;90991.59;4904845;29;20032;-91
2021/09/13 09:47:11;;;;;;;6.18;4.20;;;;;;;18.33;59.87;90988.97;4905123;29;20039;-90
2021/09/13 09:49:51;;;;;;;6.50;4.25;;;;;;;18.25;59.40;90990.09;4889614;29;20119;-89
2021/09/13 09:52:33;;;;;;;8.57;4.70;;;;;;;18.51;63.76;90983.72;4889604;29;20118;-88
2021/09/13 09:55:16;;;;;;;5.63;4.20;;;;;;;18.58;59.89;90979.22;4889501;29;20028;-88
2021/09/13 09:57:43;;;;;;;6.65;4.40;;;;;;;18.56;60.90;90981.47;4904668;29;20024;-88
2021/09/13 10:00:19;;;;;;;8.38;4.30;;;;;;;18.73;61.45;90976.63;4889436;29;20035;-88
2021/09/13 10:02:44;;;;;;;7.43;4.50;;;;;;;18.92;57.64;90984.19;4904812;29;20063;-88
2021/09/13 10:05:10;;;;;;;6.15;4.10;;;;;;;18.83;59.49;90984.56;4889338;29;20030;-87
2021/09/13 10:07:35;;;;;;;4.78;4.05;;;;;;;18.99;60.01;90986.81;4904340;29;20103;-90
2021/09/13 10:10:01;;;;;;;6.32;4.43;;;;;;;19.04;60.23;90983.78;4904287;29;20035;-89
2021/09/13 10:12:42;;;;;;;6.85;4.45;;;;;;;19.13;57.39;90978.13;4904269;29;20024;-87
2021/09/13 10:15:08;;;;;;;6.72;3.80;;;;;;;19.30;58.62;90979.25;4904364;29;20035;-87
2021/09/13 10:17:33;;;;;;;6.72;3.75;;;;;;;19.30;54.06;90974.72;4920452;29;20039;-87
2021/09/13 10:20:03;;;;;;;6.25;3.60;;;;;;;19.29;55.00;90972.44;4904515;29;20036;-88
2021/09/13 10:22:30;;;;;;;5.53;3.95;;;;;;;19.28;55.04;90965.66;4904199;29;20472;-87
2021/09/13 10:24:55;;;;;;;5.63;4.20;;;;;;;19.35;57.69;90970.94;4904099;29;20489;-87
2021/09/13 10:27:21;;;;;;;5.90;3.95;;;;;;;19.41;56.67;90964.16;4903942;29;20476;-88
2021/09/13 10:29:46;;;;;;;5.88;4.20;;;;;;;19.67;57.06;90970.91;4903398;29;20075;-87
2021/09/13 10:32:15;;;;;;;4.28;3.35;;;;;;;19.48;50.68;90958.84;4919183;29;20027;-91
2021/09/13 10:34:41;;;;;;;5.82;3.72;;;;;;;19.76;55.12;90959.94;4903781;29;20399;-88
2021/09/13 10:37:14;;;;;;;6.05;3.70;;;;;;;19.94;53.56;90957.22;4936545;29;20106;-89
2021/09/13 10:40:07;;;;;;;7.07;3.47;;;;;;;20.03;51.39;90955.66;4936131;29;20031;-87
2021/09/13 10:42:41;;;;;;;5.43;2.92;;;;;;;20.06;48.99;90957.53;4919950;29;20035;-88
2021/09/13 10:45:23;;;;;;;4.65;2.85;;;;;;;20.14;50.34;90949.56;4904019;29;20031;-88
2021/09/13 10:47:58;;;;;;;6.80;2.75;;;;;;;20.41;49.44;90958.50;4919214;29;20027;-86
2021/09/13 10:50:24;;;;;;;5.28;2.90;;;;;;;20.33;47.79;90951.75;4918570;29;20030;-87
2021/09/13 10:52:54;;;;;;;4.00;2.78;;;;;;;20.41;49.54;90947.91;4903653;29;20024;-87
2021/09/13 10:55:30;;;;;;;6.13;2.67;;;;;;;20.69;48.02;90951.53;4903463;29;20020;-90
2021/09/13 10:58:03;;;;;;;4.07;2.67;;;;;;;20.79;45.75;90949.97;4903981;29;20019;-89
2021/09/13 11:00:37;;;;;;;4.53;2.80;;;;;;;20.68;47.58;90940.22;4904374;29;20058;-89
2021/09/13 11:03:29;;;;;;;5.22;2.88;;;;;;;20.69;47.55;90946.25;4936446;29;20477;-88
2021/09/13 11:08:45;;;;;;;4.00;2.90;;;;;;;20.58;48.29;90942.94;4935516;29;20035;-88
2021/09/13 11:11:11;;;;;;;5.30;3.00;;;;;;;20.82;48.87;90949.19;4904161;29;20388;-90
2021/09/13 11:13:37;;;;;;;4.38;2.80;;;;;;;21.05;47.11;90938.03;4902808;29;20395;-89
2021/09/13 11:16:02;;;;;;;6.07;3.00;;;;;;;20.98;47.07;90934.28;4903389;29;20034;-93
2021/09/13 11:18:32;;;;;;;3.88;2.65;;;;;;;21.22;46.05;90937.88;4903577;29;20055;-89
2021/09/13 11:21:24;;;;;;;3.47;2.45;;;;;;;21.37;47.16;90929.81;4919365;29;20027;-89
2021/09/13 11:23:50;;;;;;;5.68;3.13;;;;;;;21.33;46.96;90940.41;4935683;29;20535;-89
2021/09/13 11:26:37;;;;;;;4.55;2.55;;;;;;;21.59;46.52;90940.94;4918778;29;20035;-89
2021/09/13 11:29:15;;;;;;;3.10;2.55;;;;;;;21.84;47.01;90940.69;4918000;29;20083;-94
2021/09/13 11:31:51;;;;;;;5.20;2.53;;;;;;;22.06;46.95;90935.88;4903136;29;20041;-91
2021/09/13 11:34:16;;;;;;;4.88;2.97;;;;;;;21.96;44.72;90932.22;4903698;29;20047;-90
2021/09/13 11:36:52;;;;;;;5.00;3.00;;;;;;;22.04;45.16;90927.56;4918654;29;20028;-91